createdAt,value
2019-03-24T00:01:41.471Z,10.00
2019-03-24T00:04:10.143Z,9.87
2019-03-24T00:06:39.962Z,10.03
2019-03-24T00:09:13.364Z,9.67
2019-03-24T00:11:43.181Z,9.27
2019-03-24T00:14:13.966Z,10.10
2019-03-24T00:16:43.801Z,10.10
2019-03-24T00:19:13.607Z,9.87
2019-03-24T00:21:43.415Z,9.90
2019-03-24T00:24:13.343Z,9.63
2019-03-24T00:26:45.022Z,9.90
2019-03-24T00:29:17.233Z,10.10
2019-03-24T00:31:47.988Z,10.00
2019-03-24T00:34:18.598Z,10.20
2019-03-24T00:36:48.545Z,10.40
2019-03-24T00:39:18.329Z,10.53
2019-03-24T00:41:48.134Z,10.03
2019-03-24T00:44:17.987Z,10.73
2019-03-24T00:46:47.749Z,10.50
2019-03-24T00:49:17.631Z,10.10
2019-03-24T00:51:47.469Z,12.87
2019-03-24T00:54:17.286Z,10.13
2019-03-24T00:56:47.086Z,10.77
2019-03-24T00:59:16.897Z,10.60
2019-03-24T01:01:46.724Z,10.40
2019-03-24T01:04:16.565Z,10.60
2019-03-24T01:06:46.331Z,9.67
2019-03-24T01:09:16.244Z,10.10
2019-03-24T01:11:45.952Z,10.03
2019-03-24T01:14:15.753Z,9.93
2019-03-24T01:16:45.525Z,10.07
2019-03-24T01:19:15.336Z,9.93
2019-03-24T01:21:45.165Z,9.73
2019-03-24T01:24:14.944Z,10.20
2019-03-24T01:26:44.708Z,9.70
2019-03-24T01:29:14.567Z,9.90
2019-03-24T01:31:45.012Z,10.37
2019-03-24T01:34:14.782Z,9.97
2019-03-24T01:36:46.115Z,10.00
2019-03-24T01:39:16.068Z,10.20
2019-03-24T01:41:45.861Z,10.83
2019-03-24T01:44:15.647Z,9.30
2019-03-24T01:46:46.450Z,10.77
2019-03-24T01:49:16.226Z,10.50
2019-03-24T01:51:47.122Z,10.97
2019-03-24T01:54:17.305Z,11.70
2019-03-24T01:56:47.118Z,10.47
2019-03-24T01:59:18.164Z,11.13
2019-03-24T02:01:47.952Z,10.73
2019-03-24T02:04:17.775Z,11.07
2019-03-24T02:06:47.371Z,11.47
2019-03-24T02:09:17.143Z,11.43
2019-03-24T02:11:46.951Z,11.13
2019-03-24T02:14:16.748Z,12.33
2019-03-24T02:16:46.418Z,10.27
2019-03-24T02:19:16.198Z,10.37
2019-03-24T02:21:46.062Z,10.13
2019-03-24T02:24:15.687Z,9.70
2019-03-24T02:26:45.457Z,11.23
2019-03-24T02:29:15.518Z,11.23
2019-03-24T02:31:45.515Z,10.80
2019-03-24T02:34:15.541Z,10.97
2019-03-24T02:36:46.254Z,10.83
2019-03-24T02:39:16.082Z,11.47
2019-03-24T02:41:45.794Z,10.43
2019-03-24T02:44:15.592Z,11.10
2019-03-24T02:46:45.783Z,10.33
2019-03-24T02:49:16.345Z,10.40
2019-03-24T02:51:46.167Z,10.70
2019-03-24T02:54:15.985Z,10.30
2019-03-24T02:56:45.830Z,10.67
2019-03-24T02:59:16.299Z,10.10
2019-03-24T03:01:47.014Z,10.40
2019-03-24T03:04:16.870Z,10.20
2019-03-24T03:06:46.652Z,10.57
2019-03-24T03:09:16.522Z,10.20
2019-03-24T03:11:46.540Z,10.07
2019-03-24T03:14:16.386Z,10.17
2019-03-24T03:16:47.047Z,9.83
2019-03-24T03:19:16.827Z,9.83
2019-03-24T03:21:46.620Z,10.10
2019-03-24T03:24:16.397Z,10.13
2019-03-24T03:26:46.259Z,10.17
2019-03-24T03:29:16.051Z,9.90
2019-03-24T03:31:45.838Z,9.30
2019-03-24T03:34:15.646Z,9.90
2019-03-24T03:36:45.483Z,10.33
2019-03-24T03:39:15.545Z,10.53
2019-03-24T03:41:46.848Z,10.47
2019-03-24T03:44:16.666Z,9.13
2019-03-24T03:46:52.839Z,10.20
2019-03-24T03:49:18.890Z,10.13
2019-03-24T03:51:49.647Z,9.87
2019-03-24T03:54:19.501Z,10.03
2019-03-24T03:56:49.208Z,8.67
2019-03-24T03:59:20.731Z,9.90
2019-03-24T04:01:53.625Z,9.67
2019-03-24T04:04:23.531Z,9.27
2019-03-24T04:06:53.317Z,10.20
2019-03-24T04:09:23.306Z,9.83
2019-03-24T04:11:53.534Z,9.70
2019-03-24T04:14:23.326Z,9.70
2019-03-24T04:17:06.465Z,8.97
2019-03-24T04:19:24.619Z,9.20
2019-03-24T04:21:54.448Z,9.57
2019-03-24T04:24:24.241Z,8.20
2019-03-24T04:26:54.081Z,9.73
2019-03-24T04:29:23.880Z,10.23
2019-03-24T04:31:53.998Z,10.20
2019-03-24T04:34:23.840Z,10.63
2019-03-24T04:36:53.624Z,9.83
2019-03-24T04:39:23.417Z,9.87
2019-03-24T04:41:53.175Z,9.77
2019-03-24T04:44:22.973Z,9.90
2019-03-24T04:46:52.739Z,10.57
2019-03-24T04:49:22.556Z,9.57
2019-03-24T04:51:52.349Z,9.30
2019-03-24T04:54:22.137Z,9.50
2019-03-24T04:56:51.912Z,9.37
2019-03-24T04:59:21.672Z,10.17
2019-03-24T05:01:51.457Z,10.43
2019-03-24T05:04:21.250Z,9.83
2019-03-24T05:06:51.036Z,9.80
2019-03-24T05:09:21.097Z,10.70
2019-03-24T05:11:50.961Z,12.80
2019-03-24T05:14:20.744Z,11.10
2019-03-24T05:16:50.494Z,13.40
2019-03-24T05:19:20.312Z,10.53
2019-03-24T05:21:50.101Z,11.43
2019-03-24T05:24:19.932Z,12.50
2019-03-24T05:26:49.732Z,10.03
2019-03-24T05:29:19.679Z,10.57
2019-03-24T05:31:49.493Z,10.07
2019-03-24T05:34:19.220Z,10.37
2019-03-24T05:36:49.027Z,11.17
2019-03-24T05:39:18.776Z,10.03
2019-03-24T05:41:48.589Z,10.17
2019-03-24T05:44:18.385Z,11.83
2019-03-24T05:46:48.192Z,12.13
2019-03-24T05:49:18.002Z,11.63
2019-03-24T05:51:47.795Z,11.17
2019-03-24T05:54:17.595Z,12.17
2019-03-24T05:56:48.782Z,11.73
2019-03-24T05:59:18.591Z,12.27
2019-03-24T06:01:48.551Z,22.27
2019-03-24T06:04:18.941Z,43.37
2019-03-24T06:06:50.693Z,21.03
2019-03-24T06:09:20.311Z,19.97
2019-03-24T06:11:50.111Z,17.97
2019-03-24T06:14:22.353Z,16.40
2019-03-24T06:16:52.248Z,15.40
2019-03-24T06:19:22.166Z,13.20
2019-03-24T06:21:51.981Z,11.90
2019-03-24T06:24:21.667Z,29.70
2019-03-24T06:26:51.987Z,27.87
2019-03-24T06:29:21.757Z,14.20
2019-03-24T06:31:51.533Z,15.53
2019-03-24T06:34:21.157Z,12.77
2019-03-24T06:36:54.905Z,11.97
2019-03-24T06:39:24.696Z,11.17
2019-03-24T06:41:54.579Z,12.10
2019-03-24T06:44:24.380Z,11.50
2019-03-24T06:46:54.217Z,11.40
2019-03-24T06:49:24.015Z,11.87
2019-03-24T06:51:53.810Z,11.97
2019-03-24T06:54:23.628Z,12.83
2019-03-24T06:56:53.447Z,13.07
2019-03-24T06:59:24.390Z,13.77
2019-03-24T07:01:54.426Z,12.70
2019-03-24T07:04:27.522Z,15.30
2019-03-24T07:07:00.390Z,16.23
2019-03-24T07:09:30.066Z,14.80
2019-03-24T07:12:00.549Z,14.03
2019-03-24T07:14:30.366Z,13.30
2019-03-24T07:17:00.163Z,14.13
2019-03-24T07:19:29.957Z,14.23
2019-03-24T07:21:59.925Z,13.47
2019-03-24T07:24:29.789Z,13.43
2019-03-24T07:26:59.630Z,14.00
2019-03-24T07:29:29.426Z,13.30
2019-03-24T07:31:59.265Z,13.33
2019-03-24T07:34:29.095Z,13.30
2019-03-24T07:36:58.936Z,13.33
2019-03-24T07:39:28.754Z,13.77
2019-03-24T07:41:58.857Z,11.73
2019-03-24T07:44:28.702Z,12.17
2019-03-24T07:46:59.126Z,12.57
2019-03-24T07:49:29.973Z,12.50
2019-03-24T07:51:59.818Z,12.33
2019-03-24T07:54:30.626Z,12.63
2019-03-24T07:57:00.413Z,12.20
2019-03-24T07:59:30.336Z,12.40
2019-03-24T08:02:00.094Z,12.17
2019-03-24T08:04:29.868Z,12.73
2019-03-24T08:06:59.671Z,37.93
2019-03-24T08:09:29.496Z,20.83
2019-03-24T08:11:59.429Z,10.93
2019-03-24T08:14:29.305Z,9.93
2019-03-24T08:16:59.210Z,11.33
2019-03-24T08:19:29.034Z,11.27
2019-03-24T08:21:58.780Z,10.67
2019-03-24T08:24:28.615Z,10.33
2019-03-24T08:26:58.413Z,10.63
2019-03-24T08:29:28.221Z,9.77
2019-03-24T08:31:57.876Z,10.83
2019-03-24T08:34:27.694Z,9.60
2019-03-24T08:36:57.445Z,9.10
2019-03-24T08:39:27.361Z,9.63
2019-03-24T08:41:57.152Z,8.97
2019-03-24T08:44:26.939Z,9.40
2019-03-24T08:46:56.754Z,9.67
2019-03-24T08:49:26.490Z,9.13
2019-03-24T08:51:56.389Z,10.43
2019-03-24T08:54:26.200Z,10.80
2019-03-24T08:56:55.977Z,9.97
2019-03-24T08:59:25.729Z,9.80
2019-03-24T09:01:55.626Z,10.10
2019-03-24T09:04:25.455Z,10.83
2019-03-24T09:06:55.247Z,10.60
2019-03-24T09:09:24.970Z,11.27
2019-03-24T09:11:54.784Z,10.73
2019-03-24T09:14:24.620Z,11.73
2019-03-24T09:16:54.469Z,10.70
2019-03-24T09:19:24.257Z,15.93
2019-03-24T09:21:54.036Z,11.83
2019-03-24T09:24:23.860Z,10.93
2019-03-24T09:26:53.671Z,11.03
2019-03-24T09:29:23.457Z,12.03
2019-03-24T09:31:53.257Z,10.67
2019-03-24T09:34:23.049Z,11.77
2019-03-24T09:36:53.418Z,12.70
2019-03-24T09:39:23.216Z,12.23
2019-03-24T09:41:55.435Z,11.43
2019-03-24T09:44:25.200Z,11.50
2019-03-24T09:46:55.031Z,11.73
2019-03-24T09:49:24.789Z,12.40
2019-03-24T09:51:54.619Z,11.50
2019-03-24T09:54:24.475Z,10.90
2019-03-24T09:56:54.277Z,10.93
2019-03-24T09:59:24.074Z,10.57
2019-03-24T10:01:53.899Z,10.73
2019-03-24T10:04:23.715Z,10.17
2019-03-24T10:06:53.756Z,11.10
2019-03-24T10:09:26.406Z,10.80
2019-03-24T10:11:56.254Z,15.77
2019-03-24T10:14:26.072Z,11.50
2019-03-24T10:16:55.883Z,10.33
2019-03-24T10:19:25.796Z,9.20
2019-03-24T10:21:55.614Z,9.07
2019-03-24T10:24:25.447Z,9.33
2019-03-24T10:26:55.933Z,9.23
2019-03-24T10:29:27.056Z,8.73
2019-03-24T10:31:56.818Z,9.47
2019-03-24T10:34:27.446Z,8.00
2019-03-24T10:36:57.249Z,8.20
2019-03-24T10:39:27.044Z,8.97
2019-03-24T10:41:56.883Z,8.90
2019-03-24T10:44:26.687Z,9.30
2019-03-24T10:46:56.692Z,12.20
2019-03-24T10:49:28.397Z,32.73
2019-03-24T10:51:58.267Z,12.07
2019-03-24T10:54:29.033Z,9.30
2019-03-24T10:56:58.840Z,8.43
2019-03-24T10:59:30.093Z,9.30
2019-03-24T11:01:59.894Z,8.80
2019-03-24T11:04:29.709Z,9.27
2019-03-24T11:06:59.507Z,9.00
2019-03-24T11:09:29.847Z,8.67
2019-03-24T11:11:59.599Z,9.33
2019-03-24T11:14:29.439Z,10.17
2019-03-24T11:16:59.254Z,9.10
2019-03-24T11:19:35.751Z,9.47
2019-03-24T11:22:00.632Z,9.87
2019-03-24T11:24:30.441Z,9.80
2019-03-24T11:27:00.326Z,9.27
2019-03-24T11:29:30.132Z,9.53
2019-03-24T11:31:59.886Z,9.93
2019-03-24T11:34:30.294Z,10.60
2019-03-24T11:37:00.128Z,9.27
2019-03-24T11:39:30.069Z,9.63
2019-03-24T11:41:59.956Z,9.97
2019-03-24T11:44:29.680Z,9.93
2019-03-24T11:46:59.474Z,10.57
2019-03-24T11:49:29.433Z,9.90
2019-03-24T11:51:59.219Z,8.97
2019-03-24T11:54:29.066Z,8.50
2019-03-24T11:56:58.861Z,8.83
2019-03-24T11:59:28.671Z,8.83
2019-03-24T12:02:00.824Z,7.33
2019-03-24T12:04:30.626Z,8.20
2019-03-24T12:07:00.398Z,8.10
2019-03-24T12:09:30.238Z,8.53
2019-03-24T12:12:00.020Z,8.10
2019-03-24T12:14:29.836Z,8.07
2019-03-24T12:16:59.672Z,9.03
2019-03-24T12:19:29.496Z,8.63
2019-03-24T12:21:59.242Z,8.20
2019-03-24T12:24:29.041Z,7.37
2019-03-24T12:26:58.855Z,8.00
2019-03-24T12:29:28.766Z,8.20
2019-03-24T12:32:00.952Z,7.70
2019-03-24T12:34:30.816Z,7.73
2019-03-24T12:37:00.657Z,8.00
2019-03-24T12:39:30.491Z,7.90
2019-03-24T12:42:01.558Z,8.47
2019-03-24T12:44:31.372Z,8.10
2019-03-24T12:47:01.298Z,8.57
2019-03-24T12:49:31.105Z,8.77
2019-03-24T12:52:00.980Z,8.60
2019-03-24T12:54:31.358Z,7.77
2019-03-24T12:57:01.768Z,7.13
2019-03-24T12:59:31.586Z,6.77
2019-03-24T13:02:01.419Z,7.67
2019-03-24T13:04:31.275Z,7.30
2019-03-24T13:07:01.086Z,7.10
2019-03-24T13:09:30.857Z,7.70
2019-03-24T13:12:00.660Z,7.00
2019-03-24T13:14:30.805Z,6.83
2019-03-24T13:17:02.314Z,6.63
2019-03-24T13:19:32.124Z,6.33
2019-03-24T13:22:01.875Z,6.93
2019-03-24T13:24:31.667Z,6.37
2019-03-24T13:27:01.406Z,5.80
2019-03-24T13:29:31.257Z,6.33
2019-03-24T13:32:01.162Z,5.93
2019-03-24T13:34:31.440Z,5.60
2019-03-24T13:37:01.305Z,4.93
2019-03-24T13:39:31.181Z,4.80
2019-03-24T13:42:01.041Z,5.30
2019-03-24T13:44:30.820Z,5.37
2019-03-24T13:47:00.699Z,5.63
2019-03-24T13:49:30.528Z,5.90
2019-03-24T13:52:00.348Z,5.50
2019-03-24T13:54:32.838Z,4.90
2019-03-24T13:57:03.585Z,5.00
2019-03-24T13:59:33.466Z,5.03
2019-03-24T14:02:03.560Z,5.23
2019-03-24T14:04:33.298Z,5.37
2019-03-24T14:07:03.251Z,5.00
2019-03-24T14:09:34.574Z,5.27
2019-03-24T14:12:04.372Z,4.97
2019-03-24T14:14:34.294Z,5.20
2019-03-24T14:17:04.209Z,4.80
2019-03-24T14:19:35.506Z,5.03
2019-03-24T14:22:05.437Z,5.30
2019-03-24T14:24:35.322Z,5.10
2019-03-24T14:27:05.244Z,5.30
2019-03-24T14:29:35.184Z,5.50
2019-03-24T14:32:06.015Z,5.67
2019-03-24T14:34:35.683Z,5.33
2019-03-24T14:37:05.609Z,5.73
2019-03-24T14:39:35.525Z,5.93
2019-03-24T14:42:05.550Z,5.40
2019-03-24T14:44:35.458Z,5.47
2019-03-24T14:47:06.215Z,5.60
2019-03-24T14:49:36.060Z,5.17
2019-03-24T14:52:05.973Z,5.77
2019-03-24T14:54:35.896Z,5.90
2019-03-24T14:57:05.798Z,5.53
2019-03-24T14:59:35.632Z,6.30
2019-03-24T15:02:05.561Z,5.83
2019-03-24T15:04:35.469Z,5.97
2019-03-24T15:07:05.284Z,5.77
2019-03-24T15:09:35.091Z,5.63
2019-03-24T15:12:05.019Z,5.27
2019-03-24T15:14:34.852Z,5.03
2019-03-24T15:17:04.759Z,5.20
2019-03-24T15:19:34.656Z,5.07
2019-03-24T15:22:04.571Z,6.17
2019-03-24T15:24:34.337Z,5.80
2019-03-24T15:27:04.167Z,5.30
2019-03-24T15:29:33.974Z,11.10
2019-03-24T15:32:03.809Z,5.37
2019-03-24T15:34:33.610Z,5.17
2019-03-24T15:37:03.540Z,5.10
2019-03-24T15:39:33.367Z,6.90
2019-03-24T15:42:03.266Z,12.37
2019-03-24T15:44:33.180Z,6.97
2019-03-24T15:47:04.731Z,5.07
2019-03-24T15:49:34.585Z,4.70
2019-03-24T15:52:04.402Z,4.80
2019-03-24T15:54:35.741Z,4.90
2019-03-24T15:57:05.609Z,4.60
2019-03-24T15:59:35.723Z,5.10
2019-03-24T16:02:05.757Z,4.50
2019-03-24T16:04:36.006Z,5.23
2019-03-24T16:07:05.814Z,5.30
2019-03-24T16:09:35.860Z,5.97
2019-03-24T16:12:05.758Z,4.87
2019-03-24T16:14:35.625Z,4.47
2019-03-24T16:17:05.403Z,5.07
2019-03-24T16:19:36.139Z,5.40
2019-03-24T16:22:05.984Z,5.00
2019-03-24T16:24:36.152Z,4.93
2019-03-24T16:27:06.087Z,4.47
2019-03-24T16:29:36.067Z,4.90
2019-03-24T16:32:06.306Z,13.20
2019-03-24T16:34:36.213Z,27.23
2019-03-24T16:37:06.071Z,11.83
2019-03-24T16:39:35.952Z,4.83
2019-03-24T16:42:05.932Z,4.80
2019-03-24T16:44:35.749Z,4.83
2019-03-24T16:47:05.587Z,4.67
2019-03-24T16:49:35.396Z,4.70
2019-03-24T16:52:06.386Z,4.70
2019-03-24T16:54:36.297Z,5.70
2019-03-24T16:57:06.226Z,5.20
2019-03-24T16:59:36.044Z,5.00
2019-03-24T17:02:05.999Z,5.80
2019-03-24T17:04:35.913Z,5.10
2019-03-24T17:07:06.120Z,7.53
2019-03-24T17:09:35.914Z,6.40
2019-03-24T17:12:05.808Z,5.97
2019-03-24T17:14:35.619Z,6.27
2019-03-24T17:17:05.409Z,5.00
2019-03-24T17:19:35.202Z,5.00
2019-03-24T17:22:05.062Z,39.23
2019-03-24T17:24:34.838Z,44.03
2019-03-24T17:27:04.706Z,13.07
2019-03-24T17:29:34.520Z,7.10
2019-03-24T17:32:06.868Z,6.97
2019-03-24T17:34:36.804Z,6.60
2019-03-24T17:37:06.785Z,7.43
2019-03-24T17:39:36.645Z,7.83
2019-03-24T17:42:06.535Z,11.93
2019-03-24T17:44:36.371Z,7.77
2019-03-24T17:47:09.494Z,8.57
2019-03-24T17:49:39.596Z,7.07
2019-03-24T17:52:09.552Z,6.00
2019-03-24T17:54:39.543Z,6.00
2019-03-24T17:57:10.412Z,7.13
2019-03-24T17:59:40.431Z,9.77
2019-03-24T18:02:14.536Z,8.57
2019-03-24T18:04:41.843Z,8.73
2019-03-24T18:07:11.648Z,8.27
2019-03-24T18:09:41.462Z,19.53
2019-03-24T18:12:11.333Z,8.30
2019-03-24T18:14:41.204Z,7.10
2019-03-24T18:17:11.170Z,6.27
2019-03-24T18:19:40.986Z,8.13
2019-03-24T18:22:11.838Z,9.00
2019-03-24T18:24:41.974Z,8.03
2019-03-24T18:27:13.260Z,8.57
2019-03-24T18:29:43.183Z,17.90
2019-03-24T18:32:13.094Z,12.23
2019-03-24T18:34:42.932Z,8.67
2019-03-24T18:37:12.813Z,9.63
2019-03-24T18:39:42.670Z,47.77
2019-03-24T18:42:12.556Z,13.10
2019-03-24T18:44:43.402Z,18.00
2019-03-24T18:47:14.217Z,36.97
2019-03-24T18:49:44.139Z,11.97
2019-03-24T18:52:22.620Z,11.47
2019-03-24T18:54:48.701Z,17.57
2019-03-24T18:57:18.586Z,18.20
2019-03-24T18:59:48.623Z,11.83
2019-03-24T19:02:18.566Z,11.43
2019-03-24T19:04:48.475Z,12.30
2019-03-24T19:07:18.389Z,12.73
2019-03-24T19:09:48.330Z,24.40
2019-03-24T19:12:18.275Z,26.33
2019-03-24T19:14:48.404Z,14.50
2019-03-24T19:17:19.311Z,9.77
2019-03-24T19:19:49.380Z,10.57
2019-03-24T19:22:20.747Z,11.30
2019-03-24T19:24:50.688Z,9.83
2019-03-24T19:27:20.569Z,9.90
2019-03-24T19:29:50.454Z,11.07
2019-03-24T19:32:21.769Z,12.00
2019-03-24T19:34:51.918Z,11.83
2019-03-24T19:37:22.196Z,10.77
2019-03-24T19:39:53.346Z,10.00
2019-03-24T19:42:24.409Z,8.97
2019-03-24T19:44:54.290Z,9.87
2019-03-24T19:47:24.237Z,8.43
2019-03-24T19:49:54.128Z,8.33
2019-03-24T19:52:24.126Z,9.40
2019-03-24T19:54:57.057Z,10.50
2019-03-24T19:57:27.440Z,10.07
2019-03-24T19:59:57.441Z,10.47
2019-03-24T20:02:27.460Z,29.07
2019-03-24T20:04:57.306Z,25.57
2019-03-24T20:07:27.057Z,20.37
2019-03-24T20:09:57.020Z,24.53
2019-03-24T20:12:26.941Z,40.90
2019-03-24T20:14:56.819Z,38.27
2019-03-24T20:17:26.653Z,17.70
2019-03-24T20:19:56.577Z,13.00
2019-03-24T20:22:26.461Z,11.33
2019-03-24T20:24:56.320Z,11.33
2019-03-24T20:27:26.188Z,11.77
2019-03-24T20:29:56.026Z,12.00
2019-03-24T20:32:25.898Z,10.97
2019-03-24T20:34:55.861Z,12.03
2019-03-24T20:37:25.866Z,11.27
2019-03-24T20:39:57.189Z,11.47
2019-03-24T20:42:27.035Z,11.27
2019-03-24T20:44:56.914Z,12.70
2019-03-24T20:47:26.718Z,11.13
2019-03-24T20:49:58.128Z,11.00
2019-03-24T20:52:27.995Z,11.40
2019-03-24T20:54:57.785Z,11.43
2019-03-24T20:57:27.604Z,11.07
2019-03-24T20:59:59.066Z,11.20
2019-03-24T21:02:28.992Z,13.47
2019-03-24T21:04:58.774Z,16.03
2019-03-24T21:07:28.611Z,13.23
2019-03-24T21:09:58.409Z,12.23
2019-03-24T21:12:28.329Z,13.77
2019-03-24T21:14:58.224Z,14.90
2019-03-24T21:17:28.057Z,18.60
2019-03-24T21:19:57.866Z,10.90
2019-03-24T21:22:27.688Z,10.53
2019-03-24T21:24:57.524Z,10.43
2019-03-24T21:27:27.298Z,8.37
2019-03-24T21:29:57.158Z,11.57
2019-03-24T21:32:26.983Z,11.33
2019-03-24T21:34:56.864Z,11.60
2019-03-24T21:37:27.090Z,11.83
2019-03-24T21:39:56.994Z,10.00
2019-03-24T21:42:26.845Z,9.37
2019-03-24T21:44:56.649Z,8.80
2019-03-24T21:47:26.465Z,8.87
2019-03-24T21:49:56.324Z,13.17
2019-03-24T21:52:26.128Z,24.27
2019-03-24T21:54:55.993Z,13.70
2019-03-24T21:57:25.809Z,12.37
2019-03-24T21:59:55.767Z,12.20
2019-03-24T22:02:25.684Z,11.73
2019-03-24T22:04:56.044Z,12.67
2019-03-24T22:07:25.991Z,13.93
2019-03-24T22:09:55.770Z,13.77
2019-03-24T22:12:25.572Z,12.80
2019-03-24T22:14:55.352Z,13.83
2019-03-24T22:17:25.143Z,13.63
2019-03-24T22:19:54.917Z,14.00
2019-03-24T22:22:24.696Z,12.83
2019-03-24T22:24:57.548Z,13.93
2019-03-24T22:27:27.729Z,19.13
2019-03-24T22:29:57.492Z,15.13
2019-03-24T22:32:27.370Z,13.93
2019-03-24T22:34:57.156Z,13.83
2019-03-24T22:37:26.970Z,14.13
2019-03-24T22:39:56.775Z,14.57
2019-03-24T22:42:26.892Z,14.27
2019-03-24T22:44:59.125Z,25.47
2019-03-24T22:47:28.848Z,24.50
2019-03-24T22:49:58.654Z,18.80
2019-03-24T22:52:30.369Z,15.50
2019-03-24T22:55:00.341Z,14.10
2019-03-24T22:57:32.564Z,13.63
2019-03-24T23:00:01.690Z,14.17
2019-03-24T23:02:31.465Z,13.57
2019-03-24T23:05:01.267Z,14.27
2019-03-24T23:07:31.081Z,14.43
2019-03-24T23:10:00.853Z,14.37
2019-03-24T23:12:30.673Z,13.37
2019-03-24T23:15:00.507Z,14.60
2019-03-24T23:17:30.318Z,13.63
2019-03-24T23:20:00.071Z,12.87
2019-03-24T23:22:29.933Z,12.70
2019-03-24T23:24:59.673Z,13.13
2019-03-24T23:27:29.441Z,12.87
2019-03-24T23:29:59.261Z,13.37
2019-03-24T23:32:29.058Z,12.63
2019-03-24T23:34:58.848Z,12.80
2019-03-24T23:37:28.651Z,12.77
2019-03-24T23:39:58.408Z,12.87
2019-03-24T23:42:28.228Z,12.53
2019-03-24T23:44:58.505Z,12.63
2019-03-24T23:47:28.697Z,13.67
2019-03-24T23:49:58.353Z,16.93
2019-03-24T23:52:28.066Z,16.40
2019-03-24T23:54:58.672Z,16.77
2019-03-24T23:57:28.453Z,16.90
2019-03-24T23:59:58.206Z,16.93
